Ensign, Kansas
Current Conditions -  °F | °C
As of 3:52 PM on Friday 28 Nov 2014 (Local Time) from KDDC Reporting Station
Clear Clear  
Wind Chill: 76°   Ceiling: Unl
Heat Index: 76°   Visibility: 10mi
Dew Point: 18°   Wind: 12mph
Humidity: 11%   Direction: 200°SSW
Pressure: 29.78"   Gusts: NA
Location:  37.65°N, 100.23°W
Report Text: KDDC 282152Z AUTO 20010KT 10SM CLR 24/M08 A2978 RMK AO2 SLP071 T02441078
Loading
Personal Weather Stations






























Interactive Weather Map New forecast layout! Learn more

10-Day Weather Forecast

Advertisements
Track Severe Weather on mobile